createdAt,value
2023-03-29T00:02:04.628Z,-3.81
2023-03-29T00:04:53.527Z,-3.93
2023-03-29T00:07:39.572Z,-4.01
2023-03-29T00:10:26.539Z,-4.10
2023-03-29T00:13:13.012Z,-4.19
2023-03-29T00:15:59.508Z,-4.25
2023-03-29T00:18:45.954Z,-4.28
2023-03-29T00:21:32.517Z,-4.32
2023-03-29T00:24:18.952Z,-4.34
2023-03-29T00:27:05.591Z,-4.36
2023-03-29T00:29:52.159Z,-4.37
2023-03-29T00:32:39.325Z,-4.38
2023-03-29T00:35:25.686Z,-4.38
2023-03-29T00:38:13.150Z,-4.41
2023-03-29T00:40:59.948Z,-4.43
2023-03-29T00:44:01.724Z,-4.42
2023-03-29T00:46:48.562Z,-4.40
2023-03-29T00:49:35.992Z,-4.45
2023-03-29T00:52:22.805Z,-4.39
2023-03-29T00:55:19.198Z,-4.39
2023-03-29T00:58:10.067Z,-4.40
2023-03-29T01:01:02.176Z,-4.44
2023-03-29T01:03:55.240Z,-4.49
2023-03-29T01:06:43.806Z,-4.53
2023-03-29T01:09:35.222Z,-4.57
2023-03-29T01:12:32.800Z,-4.56
2023-03-29T01:15:27.196Z,-4.59
2023-03-29T01:18:14.378Z,-4.61
2023-03-29T01:21:27.890Z,-4.64
2023-03-29T01:24:32.963Z,-4.69
2023-03-29T01:27:44.189Z,-4.72
2023-03-29T01:30:41.057Z,-4.75
2023-03-29T01:33:33.524Z,-4.89
2023-03-29T01:36:31.349Z,-4.92
2023-03-29T01:39:19.025Z,-4.98
2023-03-29T01:42:29.950Z,-5.02
2023-03-29T01:46:01.934Z,-5.06
2023-03-29T01:48:56.906Z,-5.02
2023-03-29T01:52:08.172Z,-4.99
2023-03-29T01:55:18.453Z,-4.96
2023-03-29T01:58:08.455Z,-4.98
2023-03-29T02:00:55.499Z,-5.04
2023-03-29T02:03:47.285Z,-5.11
2023-03-29T02:06:36.179Z,-5.16
2023-03-29T02:09:23.496Z,-5.21
2023-03-29T02:12:12.668Z,-5.26
2023-03-29T02:15:00.910Z,-5.31
2023-03-29T02:17:49.504Z,-5.39
2023-03-29T02:20:40.668Z,-5.33
2023-03-29T02:23:36.208Z,-5.27
2023-03-29T02:26:24.015Z,-5.20
2023-03-29T02:29:11.096Z,-5.15
2023-03-29T02:32:09.919Z,-5.11
2023-03-29T02:35:07.275Z,-5.11
2023-03-29T02:37:57.447Z,-5.19
2023-03-29T02:40:45.518Z,-5.29
2023-03-29T02:43:34.659Z,-5.38
2023-03-29T02:46:21.584Z,-5.48
2023-03-29T02:49:10.306Z,-5.54
2023-03-29T02:52:04.260Z,-5.58
2023-03-29T02:54:54.519Z,-5.63
2023-03-29T03:00:29.955Z,-5.62
2023-03-29T03:03:17.070Z,-5.63
2023-03-29T03:06:07.062Z,-5.62
2023-03-29T03:08:53.893Z,-5.65
2023-03-29T03:11:40.416Z,-5.75
2023-03-29T03:14:28.340Z,-5.75
2023-03-29T03:17:18.787Z,-5.79
2023-03-29T03:20:13.235Z,-5.80
2023-03-29T03:23:01.278Z,-5.79
2023-03-29T03:25:49.246Z,-5.77
2023-03-29T03:28:35.691Z,-5.78
2023-03-29T03:31:23.992Z,-5.81
2023-03-29T03:34:31.309Z,-5.84
2023-03-29T03:37:20.076Z,-5.82
2023-03-29T03:40:08.961Z,-5.81
2023-03-29T03:42:55.504Z,-5.84
2023-03-29T03:45:42.945Z,-5.85
2023-03-29T03:48:34.094Z,-5.93
2023-03-29T03:51:27.909Z,-5.97
2023-03-29T03:54:14.289Z,-5.99
2023-03-29T03:57:26.790Z,-5.92
2023-03-29T04:00:20.481Z,-5.91
2023-03-29T04:03:12.281Z,-5.99
2023-03-29T04:06:02.229Z,-6.06
2023-03-29T04:08:53.926Z,-6.12
2023-03-29T04:11:56.909Z,-6.15
2023-03-29T04:14:43.408Z,-6.14
2023-03-29T04:17:36.489Z,-6.11
2023-03-29T04:20:39.726Z,-6.11
2023-03-29T04:23:26.594Z,-6.09
2023-03-29T04:26:15.900Z,-6.07
2023-03-29T04:29:08.461Z,-6.02
2023-03-29T04:32:00.832Z,-5.99
2023-03-29T04:35:01.662Z,-5.98
2023-03-29T04:37:48.315Z,-5.98
2023-03-29T04:40:35.779Z,-5.99
2023-03-29T04:43:31.277Z,-6.08
2023-03-29T04:46:40.372Z,-6.07
2023-03-29T04:49:51.752Z,-6.07
2023-03-29T04:52:51.447Z,-6.04
2023-03-29T04:55:38.312Z,-5.99
2023-03-29T04:58:32.192Z,-5.97
2023-03-29T05:01:19.700Z,-5.87
2023-03-29T05:04:15.331Z,-5.76
2023-03-29T05:07:13.221Z,-5.64
2023-03-29T05:10:00.216Z,-5.52
2023-03-29T05:12:47.356Z,-5.41
2023-03-29T05:15:33.782Z,-5.29
2023-03-29T05:18:20.210Z,-5.19
2023-03-29T05:21:07.670Z,-5.10
2023-03-29T05:23:55.265Z,-5.02
2023-03-29T05:27:08.261Z,-4.93
2023-03-29T05:29:56.223Z,-4.89
2023-03-29T05:32:48.005Z,-4.83
2023-03-29T05:35:36.191Z,-4.79
2023-03-29T05:38:24.127Z,-4.71
2023-03-29T05:41:11.484Z,-4.62
2023-03-29T05:44:17.084Z,-4.59
2023-03-29T05:47:04.379Z,-4.43
2023-03-29T05:49:51.518Z,-4.32
2023-03-29T05:52:43.495Z,-4.18
2023-03-29T05:55:29.822Z,-4.07
2023-03-29T05:58:18.048Z,-3.94
2023-03-29T06:01:10.536Z,-3.82
2023-03-29T06:04:14.388Z,-3.61
2023-03-29T06:07:08.612Z,-3.38
2023-03-29T06:09:55.557Z,-3.15
2023-03-29T06:12:42.755Z,-2.93
2023-03-29T06:15:29.930Z,-2.73
2023-03-29T06:18:23.383Z,-2.53
2023-03-29T06:21:10.730Z,-2.35
2023-03-29T06:23:57.821Z,-2.17
2023-03-29T06:26:45.213Z,-2.01
2023-03-29T06:29:32.037Z,-1.84
2023-03-29T06:32:18.647Z,-1.66
2023-03-29T06:35:18.718Z,-1.46
2023-03-29T06:38:11.964Z,-1.25
2023-03-29T06:41:16.882Z,-0.99
2023-03-29T06:44:29.857Z,-0.73
2023-03-29T06:47:30.910Z,-0.49
2023-03-29T06:50:18.806Z,-0.24
2023-03-29T06:53:13.613Z,-0.00
2023-03-29T06:56:05.300Z,0.26
2023-03-29T06:59:03.454Z,0.55
2023-03-29T07:02:02.850Z,0.85
2023-03-29T07:05:16.300Z,1.15
2023-03-29T07:08:06.114Z,1.39
2023-03-29T07:11:04.010Z,1.63
2023-03-29T07:13:57.007Z,1.80
2023-03-29T07:16:47.223Z,2.03
2023-03-29T07:19:38.360Z,2.21
2023-03-29T07:22:33.004Z,2.33
2023-03-29T07:25:22.508Z,2.48
2023-03-29T07:28:09.479Z,2.66
2023-03-29T07:31:11.314Z,2.84
2023-03-29T07:34:05.627Z,3.04
2023-03-29T07:36:52.251Z,3.21
2023-03-29T07:39:38.690Z,3.36
2023-03-29T07:42:48.749Z,3.53
2023-03-29T07:45:37.885Z,3.68
2023-03-29T07:48:29.855Z,3.78
2023-03-29T07:51:19.125Z,3.89
2023-03-29T07:54:08.420Z,4.03
2023-03-29T07:56:55.429Z,4.19
2023-03-29T07:59:51.839Z,4.32
2023-03-29T08:02:46.707Z,4.50
2023-03-29T08:05:40.672Z,4.68
2023-03-29T08:08:34.808Z,4.81
2023-03-29T08:11:31.505Z,5.03
2023-03-29T08:14:24.510Z,5.17
2023-03-29T08:17:16.851Z,5.31
2023-03-29T08:20:10.780Z,5.45
2023-03-29T08:22:58.735Z,5.63
2023-03-29T08:26:09.396Z,5.82
2023-03-29T08:28:56.840Z,6.00
2023-03-29T08:31:43.891Z,6.10
2023-03-29T08:34:31.849Z,6.24
2023-03-29T08:37:37.856Z,6.41
2023-03-29T08:40:28.174Z,6.53
2023-03-29T08:44:07.247Z,6.57
2023-03-29T08:47:25.360Z,6.67
2023-03-29T08:50:13.870Z,6.78
2023-03-29T08:53:05.686Z,6.88
2023-03-29T08:56:34.019Z,6.98
2023-03-29T08:59:41.689Z,7.13
2023-03-29T09:02:32.587Z,7.26
2023-03-29T09:05:27.444Z,7.41
2023-03-29T09:08:40.188Z,7.50
2023-03-29T09:11:45.159Z,7.53
2023-03-29T09:14:55.858Z,7.64
2023-03-29T09:17:58.380Z,7.66
2023-03-29T09:20:52.610Z,7.72
2023-03-29T09:24:15.823Z,7.76
2023-03-29T09:27:26.558Z,7.85
2023-03-29T09:30:41.526Z,8.10
2023-03-29T09:33:42.817Z,8.20
2023-03-29T09:36:56.641Z,8.22
2023-03-29T09:39:43.850Z,8.28
2023-03-29T09:42:32.610Z,8.29
2023-03-29T09:45:19.630Z,8.44
2023-03-29T09:48:17.741Z,8.53
2023-03-29T09:51:11.427Z,8.65
2023-03-29T09:54:00.234Z,8.70
2023-03-29T09:57:20.334Z,8.68
2023-03-29T10:00:10.634Z,8.67
2023-03-29T10:03:07.456Z,8.70
2023-03-29T10:06:06.920Z,8.75
2023-03-29T10:08:59.078Z,8.86
2023-03-29T10:11:55.239Z,8.99
2023-03-29T10:14:48.137Z,9.19
2023-03-29T10:17:40.975Z,9.30
2023-03-29T10:20:28.246Z,9.31
2023-03-29T10:23:18.550Z,9.30
2023-03-29T10:26:10.277Z,9.32
2023-03-29T10:29:00.320Z,9.35
2023-03-29T10:31:46.673Z,9.30
2023-03-29T10:34:33.897Z,9.38
2023-03-29T10:37:21.296Z,9.54
2023-03-29T10:40:19.674Z,9.63
2023-03-29T10:43:24.654Z,9.78
2023-03-29T10:46:22.195Z,9.71
2023-03-29T10:49:20.719Z,9.73
2023-03-29T10:52:08.284Z,9.68
2023-03-29T10:54:56.632Z,9.63
2023-03-29T10:57:50.475Z,9.66
2023-03-29T11:00:52.341Z,9.74
2023-03-29T11:03:54.745Z,9.91
2023-03-29T11:06:52.634Z,10.18
2023-03-29T11:09:59.310Z,10.29
2023-03-29T11:12:56.082Z,10.21
2023-03-29T11:16:11.030Z,10.19
2023-03-29T11:19:15.452Z,10.14
2023-03-29T11:22:19.729Z,9.93
2023-03-29T11:25:20.614Z,9.90
2023-03-29T11:28:49.265Z,9.92
2023-03-29T11:31:54.174Z,9.82
2023-03-29T11:35:03.262Z,9.86
2023-03-29T11:38:08.553Z,10.00
2023-03-29T11:41:00.905Z,10.23
2023-03-29T11:43:54.233Z,10.53
2023-03-29T11:46:48.125Z,10.90
2023-03-29T11:49:49.376Z,11.06
2023-03-29T11:53:01.407Z,11.51
2023-03-29T11:55:51.396Z,12.02
2023-03-29T11:58:42.534Z,12.65
2023-03-29T12:01:38.574Z,13.06
2023-03-29T12:04:32.660Z,13.40
2023-03-29T12:07:28.291Z,13.77
2023-03-29T12:10:17.302Z,13.64
2023-03-29T12:13:12.052Z,13.66
2023-03-29T12:16:05.705Z,13.86
2023-03-29T12:18:57.300Z,13.42
2023-03-29T12:21:46.770Z,13.31
2023-03-29T12:24:38.750Z,13.42
2023-03-29T12:27:59.656Z,13.64
2023-03-29T12:31:06.443Z,14.69
2023-03-29T12:34:01.966Z,15.90
2023-03-29T12:37:27.027Z,16.29
2023-03-29T12:40:45.702Z,16.22
2023-03-29T12:43:51.514Z,15.79
2023-03-29T12:47:00.659Z,15.72
2023-03-29T12:49:47.704Z,15.96
2023-03-29T12:52:36.265Z,16.10
2023-03-29T12:55:32.369Z,16.66
2023-03-29T12:58:26.852Z,17.01
2023-03-29T13:01:32.110Z,16.89
2023-03-29T13:04:42.328Z,16.65
2023-03-29T13:07:32.988Z,16.64
2023-03-29T13:10:42.084Z,16.57
2023-03-29T13:13:33.846Z,16.87
2023-03-29T13:16:30.319Z,16.69
2023-03-29T13:19:32.481Z,16.26
2023-03-29T13:22:31.324Z,16.15
2023-03-29T13:25:47.004Z,15.78
2023-03-29T13:29:04.746Z,15.18
2023-03-29T13:31:56.981Z,14.64
2023-03-29T13:35:06.367Z,14.15
2023-03-29T13:38:20.770Z,13.67
2023-03-29T13:41:39.520Z,13.50
2023-03-29T13:44:33.883Z,13.29
2023-03-29T13:47:32.637Z,13.08
2023-03-29T13:50:33.582Z,12.86
2023-03-29T13:53:29.271Z,12.56
2023-03-29T13:56:22.415Z,12.36
2023-03-29T13:59:19.158Z,12.26
2023-03-29T14:02:06.656Z,12.22
2023-03-29T14:04:54.075Z,12.36
2023-03-29T14:07:46.545Z,12.50
2023-03-29T14:10:42.429Z,12.46
2023-03-29T14:13:30.153Z,12.44
2023-03-29T14:16:16.591Z,12.48
2023-03-29T14:19:06.182Z,12.40
2023-03-29T14:21:53.267Z,12.49
2023-03-29T14:24:48.060Z,12.71
2023-03-29T14:27:37.190Z,12.89
2023-03-29T14:30:27.962Z,13.04
2023-03-29T14:33:14.686Z,13.89
2023-03-29T14:36:06.359Z,14.03
2023-03-29T14:39:06.412Z,14.17
2023-03-29T14:41:55.411Z,13.99
2023-03-29T14:44:43.393Z,13.66
2023-03-29T14:47:32.987Z,13.49
2023-03-29T14:50:25.293Z,13.32
2023-03-29T14:53:24.298Z,13.26
2023-03-29T14:56:14.583Z,13.29
2023-03-29T14:59:03.598Z,13.29
2023-03-29T15:01:50.352Z,13.30
2023-03-29T15:04:37.485Z,13.29
2023-03-29T15:07:27.230Z,13.62
2023-03-29T15:10:23.088Z,13.68
2023-03-29T15:13:17.558Z,13.61
2023-03-29T15:16:08.117Z,13.63
2023-03-29T15:18:54.733Z,13.56
2023-03-29T15:21:41.258Z,13.30
2023-03-29T15:24:29.275Z,13.16
2023-03-29T15:27:18.295Z,14.67
2023-03-29T15:30:14.011Z,16.14
2023-03-29T15:33:39.987Z,15.59
2023-03-29T15:36:27.254Z,14.76
2023-03-29T15:39:17.144Z,14.31
2023-03-29T15:42:04.184Z,14.06
2023-03-29T15:44:54.806Z,13.69
2023-03-29T15:47:41.320Z,13.41
2023-03-29T15:50:28.062Z,13.08
2023-03-29T15:53:17.169Z,12.87
2023-03-29T15:56:07.495Z,12.98
2023-03-29T15:58:54.419Z,12.83
2023-03-29T16:01:41.935Z,12.44
2023-03-29T16:04:28.830Z,11.98
2023-03-29T16:07:17.536Z,11.60
2023-03-29T16:10:04.107Z,11.31
2023-03-29T16:12:50.797Z,11.20
2023-03-29T16:15:37.808Z,11.16
2023-03-29T16:18:24.515Z,11.18
2023-03-29T16:21:16.348Z,11.07
2023-03-29T16:24:03.926Z,10.80
2023-03-29T16:26:54.000Z,10.54
2023-03-29T16:29:42.082Z,10.32
2023-03-29T16:32:28.757Z,10.13
2023-03-29T16:35:29.102Z,9.94
2023-03-29T16:38:15.558Z,9.74
2023-03-29T16:41:02.644Z,9.60
2023-03-29T16:43:49.376Z,9.46
2023-03-29T16:46:35.839Z,9.32
2023-03-29T16:49:22.449Z,9.20
2023-03-29T16:52:09.162Z,9.09
2023-03-29T16:54:55.425Z,8.99
2023-03-29T16:57:42.626Z,8.87
2023-03-29T17:00:29.529Z,8.75
2023-03-29T17:03:16.964Z,8.65
2023-03-29T17:06:05.643Z,8.55
2023-03-29T17:08:53.841Z,8.47
2023-03-29T17:11:41.481Z,8.38
2023-03-29T17:14:28.697Z,8.30
2023-03-29T17:17:16.101Z,8.25
2023-03-29T17:20:02.650Z,8.19
2023-03-29T17:22:52.203Z,8.15
2023-03-29T17:25:38.745Z,8.10
2023-03-29T17:28:25.309Z,8.04
2023-03-29T17:31:12.134Z,8.00
2023-03-29T17:33:58.540Z,7.94
2023-03-29T17:36:45.982Z,7.89
2023-03-29T17:39:37.564Z,7.85
2023-03-29T17:42:24.145Z,7.82
2023-03-29T17:45:11.278Z,7.78
2023-03-29T17:47:58.274Z,7.75
2023-03-29T17:50:44.730Z,7.72
2023-03-29T17:53:31.231Z,7.71
2023-03-29T17:56:20.300Z,7.69
2023-03-29T17:59:06.665Z,7.67
2023-03-29T18:01:53.425Z,7.65
2023-03-29T18:04:39.656Z,7.62
2023-03-29T18:07:26.168Z,7.61
2023-03-29T18:10:12.605Z,7.62
2023-03-29T18:13:00.115Z,7.62
2023-03-29T18:15:47.580Z,7.62
2023-03-29T18:18:34.966Z,7.62
2023-03-29T18:21:22.123Z,7.60
2023-03-29T18:24:08.504Z,7.61
2023-03-29T18:26:55.163Z,7.60
2023-03-29T18:29:41.496Z,7.59
2023-03-29T18:32:28.310Z,7.59
2023-03-29T18:35:15.124Z,7.58
2023-03-29T18:38:03.345Z,7.56
2023-03-29T18:40:50.608Z,7.51
2023-03-29T18:43:38.798Z,7.54
2023-03-29T18:46:25.882Z,7.53
2023-03-29T18:49:13.234Z,7.52
2023-03-29T18:51:59.859Z,7.44
2023-03-29T18:54:46.495Z,7.49
2023-03-29T18:57:33.089Z,7.48
2023-03-29T19:00:20.011Z,7.47
2023-03-29T19:03:07.629Z,7.41
2023-03-29T19:05:55.799Z,7.42
2023-03-29T19:08:42.671Z,7.40
2023-03-29T19:11:30.040Z,7.36
2023-03-29T19:14:23.323Z,7.35
2023-03-29T19:17:09.809Z,7.33
2023-03-29T19:19:56.848Z,7.32
2023-03-29T19:22:43.172Z,7.30
2023-03-29T19:25:33.021Z,7.30
2023-03-29T19:28:19.503Z,7.28
2023-03-29T19:31:05.762Z,7.25
2023-03-29T19:33:52.201Z,7.18
2023-03-29T19:36:39.290Z,7.21
2023-03-29T19:39:27.960Z,7.18
2023-03-29T19:42:15.015Z,7.16
2023-03-29T19:45:02.478Z,7.12
2023-03-29T19:47:57.737Z,7.07
2023-03-29T19:50:45.672Z,7.10
2023-03-29T19:53:32.916Z,7.09
2023-03-29T19:56:19.965Z,7.08
2023-03-29T19:59:06.922Z,7.03
2023-03-29T20:01:56.853Z,7.06
2023-03-29T20:04:44.101Z,7.06
2023-03-29T20:07:30.473Z,7.03
2023-03-29T20:10:17.292Z,7.03
2023-03-29T20:13:06.281Z,7.03
2023-03-29T20:15:53.471Z,7.00
2023-03-29T20:18:39.807Z,6.99
2023-03-29T20:21:26.277Z,6.98
2023-03-29T20:24:12.609Z,6.94
2023-03-29T20:26:58.840Z,6.97
2023-03-29T20:29:45.921Z,6.94
2023-03-29T20:32:32.478Z,6.94
2023-03-29T20:35:19.177Z,6.92
2023-03-29T20:38:05.895Z,6.91
2023-03-29T20:40:53.552Z,6.89
2023-03-29T20:43:41.292Z,6.88
2023-03-29T20:46:35.068Z,6.87
2023-03-29T20:49:26.281Z,6.87
2023-03-29T20:52:17.710Z,6.86
2023-03-29T20:55:05.689Z,6.86
2023-03-29T20:57:59.513Z,6.85
2023-03-29T21:00:48.598Z,6.85
2023-03-29T21:03:37.622Z,6.84
2023-03-29T21:06:24.598Z,6.84
2023-03-29T21:09:10.848Z,6.83
2023-03-29T21:11:57.491Z,6.81
2023-03-29T21:14:44.933Z,6.80
2023-03-29T21:17:31.334Z,6.79
2023-03-29T21:20:18.720Z,6.75
2023-03-29T21:23:05.188Z,6.78
2023-03-29T21:25:52.004Z,6.77
2023-03-29T21:28:38.236Z,6.75
2023-03-29T21:31:24.848Z,6.74
2023-03-29T21:34:11.060Z,6.73
2023-03-29T21:36:58.317Z,6.73
2023-03-29T21:39:45.026Z,6.72
2023-03-29T21:42:34.966Z,6.71
2023-03-29T21:45:21.950Z,6.71
2023-03-29T21:48:08.684Z,6.70
2023-03-29T21:50:55.428Z,6.69
2023-03-29T21:53:42.282Z,6.68
2023-03-29T21:56:28.943Z,6.67
2023-03-29T21:59:15.453Z,6.65
2023-03-29T22:02:02.203Z,6.64
2023-03-29T22:04:49.076Z,6.63
2023-03-29T22:07:38.785Z,6.62
2023-03-29T22:10:25.810Z,6.61
2023-03-29T22:13:12.488Z,6.60
2023-03-29T22:16:01.091Z,6.58
2023-03-29T22:18:49.164Z,6.56
2023-03-29T22:21:37.318Z,6.53
2023-03-29T22:24:23.962Z,6.50
2023-03-29T22:27:11.748Z,6.49
2023-03-29T22:29:58.758Z,6.47
2023-03-29T22:32:45.597Z,6.46
2023-03-29T22:35:34.842Z,6.44
2023-03-29T22:38:21.429Z,6.42
2023-03-29T22:41:08.645Z,6.41
2023-03-29T22:43:57.720Z,6.39
2023-03-29T22:46:44.513Z,6.37
2023-03-29T22:49:31.627Z,6.34
2023-03-29T22:52:18.330Z,6.33
2023-03-29T22:55:05.435Z,6.30
2023-03-29T22:57:51.746Z,6.30
2023-03-29T23:00:38.259Z,6.34
2023-03-29T23:03:25.402Z,6.37
2023-03-29T23:06:12.021Z,6.38
2023-03-29T23:08:58.877Z,6.40
2023-03-29T23:11:45.624Z,6.42
2023-03-29T23:14:33.793Z,6.43
2023-03-29T23:17:20.512Z,6.39
2023-03-29T23:20:08.769Z,6.37
2023-03-29T23:22:55.257Z,6.35
2023-03-29T23:25:49.710Z,6.32
2023-03-29T23:28:38.209Z,6.29
2023-03-29T23:31:25.585Z,6.26
2023-03-29T23:34:13.661Z,6.23
2023-03-29T23:37:00.383Z,6.19
2023-03-29T23:39:47.090Z,6.16
2023-03-29T23:42:33.692Z,6.10
2023-03-29T23:45:20.401Z,6.16
2023-03-29T23:48:07.638Z,6.18
2023-03-29T23:50:57.096Z,6.18
2023-03-29T23:53:43.246Z,6.18
2023-03-29T23:56:29.775Z,6.18
2023-03-29T23:59:16.932Z,6.17
